createdAt,value
2023-01-21T00:00:39.131Z,9.27
2023-01-21T00:03:05.738Z,9.30
2023-01-21T00:05:32.266Z,8.70
2023-01-21T00:08:00.060Z,9.03
2023-01-21T00:10:27.634Z,11.50
2023-01-21T00:12:54.419Z,12.97
2023-01-21T00:15:21.019Z,13.57
2023-01-21T00:17:47.657Z,14.90
2023-01-21T00:20:14.281Z,15.70
2023-01-21T00:22:40.873Z,15.67
2023-01-21T00:25:07.639Z,16.33
2023-01-21T00:27:34.341Z,17.67
2023-01-21T00:30:00.888Z,16.23
2023-01-21T00:32:27.435Z,16.60
2023-01-21T00:34:54.043Z,17.90
2023-01-21T00:37:20.560Z,14.73
2023-01-21T00:39:47.074Z,13.40
2023-01-21T00:42:13.599Z,13.17
2023-01-21T00:44:40.068Z,11.30
2023-01-21T00:47:06.747Z,11.53
2023-01-21T00:49:33.350Z,12.57
2023-01-21T00:51:59.960Z,10.90
2023-01-21T00:54:26.489Z,10.63
2023-01-21T00:56:53.095Z,10.60
2023-01-21T00:59:19.791Z,10.23
2023-01-21T01:01:46.367Z,9.13
2023-01-21T01:04:12.958Z,9.13
2023-01-21T01:06:39.458Z,8.27
2023-01-21T01:09:05.978Z,8.27
2023-01-21T01:11:32.733Z,8.67
2023-01-21T01:13:59.373Z,8.50
2023-01-21T01:16:25.956Z,9.33
2023-01-21T01:18:52.864Z,8.83
2023-01-21T01:21:19.785Z,10.13
2023-01-21T01:23:46.636Z,8.83
2023-01-21T01:26:13.919Z,10.30
2023-01-21T01:28:40.570Z,9.90
2023-01-21T01:31:07.871Z,10.33
2023-01-21T01:33:34.538Z,9.33
2023-01-21T01:36:01.763Z,9.23
2023-01-21T01:38:28.327Z,9.30
2023-01-21T01:40:54.853Z,9.13
2023-01-21T01:43:22.477Z,10.17
2023-01-21T01:45:49.248Z,9.17
2023-01-21T01:48:27.046Z,7.83
2023-01-21T01:50:53.618Z,8.77
2023-01-21T01:53:20.238Z,7.63
2023-01-21T01:55:46.838Z,9.23
2023-01-21T01:58:13.699Z,7.47
2023-01-21T02:00:40.346Z,6.37
2023-01-21T02:03:25.572Z,8.43
2023-01-21T02:05:52.295Z,7.77
2023-01-21T02:08:18.814Z,7.57
2023-01-21T02:10:45.380Z,8.77
2023-01-21T02:13:11.853Z,8.33
2023-01-21T02:16:01.147Z,8.10
2023-01-21T02:18:46.392Z,8.67
2023-01-21T02:21:24.260Z,7.60
2023-01-21T02:24:09.891Z,8.10
2023-01-21T02:26:40.957Z,7.80
2023-01-21T02:29:14.564Z,7.10
2023-01-21T02:31:44.198Z,7.03
2023-01-21T02:34:21.353Z,7.17
2023-01-21T02:37:00.370Z,7.73
2023-01-21T02:39:35.804Z,8.10
2023-01-21T02:42:17.906Z,7.43
2023-01-21T02:45:04.680Z,7.60
2023-01-21T02:47:43.503Z,7.40
2023-01-21T02:50:12.642Z,7.03
2023-01-21T02:52:39.145Z,7.57
2023-01-21T02:55:05.974Z,7.47
2023-01-21T02:57:40.337Z,6.53
2023-01-21T03:00:09.133Z,7.10
2023-01-21T03:02:35.719Z,6.77
2023-01-21T03:05:07.351Z,7.03
2023-01-21T03:07:34.288Z,6.83
2023-01-21T03:10:11.029Z,7.17
2023-01-21T03:12:46.747Z,7.27
2023-01-21T03:15:34.549Z,6.83
2023-01-21T03:18:01.141Z,6.60
2023-01-21T03:20:29.200Z,7.13
2023-01-21T03:22:59.661Z,6.03
2023-01-21T03:25:26.214Z,7.27
2023-01-21T03:27:52.912Z,6.53
2023-01-21T03:30:20.686Z,7.40
2023-01-21T03:32:48.483Z,7.47
2023-01-21T03:35:19.628Z,6.93
2023-01-21T03:37:54.078Z,6.87
2023-01-21T03:40:40.927Z,6.77
2023-01-21T03:43:07.517Z,6.67
2023-01-21T03:45:41.222Z,5.60
2023-01-21T03:48:10.397Z,6.57
2023-01-21T03:50:38.627Z,6.47
2023-01-21T03:53:05.798Z,6.20
2023-01-21T03:55:32.359Z,7.30
2023-01-21T03:57:58.850Z,6.93
2023-01-21T04:00:25.420Z,7.47
2023-01-21T04:02:51.966Z,7.93
2023-01-21T04:05:18.562Z,6.40
2023-01-21T04:07:45.113Z,7.00
2023-01-21T04:10:11.753Z,7.23
2023-01-21T04:12:38.319Z,6.57
2023-01-21T04:15:05.612Z,6.37
2023-01-21T04:17:32.474Z,6.17
2023-01-21T04:19:58.953Z,6.63
2023-01-21T04:22:25.460Z,6.10
2023-01-21T04:24:51.981Z,6.67
2023-01-21T04:27:18.511Z,5.97
2023-01-21T04:29:45.088Z,5.87
2023-01-21T04:32:11.769Z,6.27
2023-01-21T04:34:38.308Z,6.20
2023-01-21T04:37:04.867Z,5.97
2023-01-21T04:39:31.422Z,5.20
2023-01-21T04:41:58.059Z,6.60
2023-01-21T04:44:24.679Z,5.73
2023-01-21T04:46:51.232Z,5.93
2023-01-21T04:49:17.789Z,6.00
2023-01-21T04:51:44.286Z,4.40
2023-01-21T04:54:11.565Z,5.27
2023-01-21T04:56:38.235Z,5.70
2023-01-21T04:59:05.050Z,5.13
2023-01-21T05:01:31.621Z,5.63
2023-01-21T05:03:58.215Z,5.40
2023-01-21T05:06:24.728Z,5.60
2023-01-21T05:08:51.262Z,4.93
2023-01-21T05:11:18.317Z,5.77
2023-01-21T05:13:44.802Z,5.17
2023-01-21T05:16:11.327Z,5.40
2023-01-21T05:18:38.057Z,5.83
2023-01-21T05:21:04.964Z,5.80
2023-01-21T05:23:31.706Z,5.67
2023-01-21T05:25:58.251Z,6.43
2023-01-21T05:28:24.730Z,6.00
2023-01-21T05:30:51.283Z,6.20
2023-01-21T05:33:17.905Z,5.80
2023-01-21T05:35:44.500Z,5.10
2023-01-21T05:38:10.988Z,6.17
2023-01-21T05:40:37.475Z,6.17
2023-01-21T05:43:03.957Z,6.03
2023-01-21T05:45:30.542Z,6.90
2023-01-21T05:47:57.113Z,7.37
2023-01-21T05:50:23.820Z,18.27
2023-01-21T05:52:50.428Z,20.83
2023-01-21T05:55:17.047Z,9.30
2023-01-21T05:57:43.644Z,13.73
2023-01-21T06:00:10.470Z,28.30
2023-01-21T06:02:37.131Z,17.03
2023-01-21T06:05:03.753Z,9.63
2023-01-21T06:07:30.281Z,10.03
2023-01-21T06:09:56.856Z,9.60
2023-01-21T06:12:24.807Z,11.23
2023-01-21T06:14:51.454Z,8.70
2023-01-21T06:17:18.940Z,8.70
2023-01-21T06:19:45.747Z,11.97
2023-01-21T06:22:15.882Z,8.20
2023-01-21T06:24:42.402Z,29.73
2023-01-21T06:27:08.937Z,25.07
2023-01-21T06:29:35.437Z,11.23
2023-01-21T06:32:02.021Z,8.93
2023-01-21T06:34:28.653Z,10.27
2023-01-21T06:36:55.142Z,9.77
2023-01-21T06:39:21.715Z,9.97
2023-01-21T06:41:48.204Z,11.00
2023-01-21T06:44:14.816Z,9.93
2023-01-21T06:46:45.849Z,7.17
2023-01-21T06:49:15.508Z,7.37
2023-01-21T06:51:43.170Z,16.47
2023-01-21T06:54:12.811Z,10.77
2023-01-21T06:56:41.225Z,9.27
2023-01-21T06:59:07.737Z,8.47
2023-01-21T07:01:34.351Z,9.10
2023-01-21T07:04:01.716Z,8.63
2023-01-21T07:06:28.349Z,7.33
2023-01-21T07:08:54.910Z,7.83
2023-01-21T07:11:21.397Z,7.70
2023-01-21T07:13:48.009Z,8.13
2023-01-21T07:16:14.682Z,7.33
2023-01-21T07:18:41.352Z,21.23
2023-01-21T07:21:07.903Z,13.53
2023-01-21T07:23:34.407Z,12.50
2023-01-21T07:26:01.094Z,7.83
2023-01-21T07:28:27.578Z,11.90
2023-01-21T07:30:54.163Z,8.93
2023-01-21T07:33:20.731Z,8.50
2023-01-21T07:35:47.309Z,10.23
2023-01-21T07:38:13.805Z,9.70
2023-01-21T07:40:40.297Z,8.87
2023-01-21T07:43:06.882Z,9.10
2023-01-21T07:45:33.434Z,11.60
2023-01-21T07:47:59.945Z,10.90
2023-01-21T07:50:26.551Z,9.07
2023-01-21T07:52:54.625Z,9.37
2023-01-21T07:55:22.901Z,9.63
2023-01-21T07:57:49.372Z,10.50
2023-01-21T08:00:16.180Z,10.60
2023-01-21T08:02:42.722Z,9.70
2023-01-21T08:05:09.998Z,8.67
2023-01-21T08:07:36.653Z,10.17
2023-01-21T08:10:03.234Z,12.40
2023-01-21T08:12:29.877Z,11.47
2023-01-21T08:14:56.457Z,9.43
2023-01-21T08:17:23.141Z,9.70
2023-01-21T08:19:49.726Z,8.20
2023-01-21T08:22:16.317Z,8.27
2023-01-21T08:24:42.855Z,7.90
2023-01-21T08:27:09.356Z,8.33
2023-01-21T08:29:35.869Z,7.77
2023-01-21T08:32:02.463Z,10.27
2023-01-21T08:34:29.036Z,28.03
2023-01-21T08:36:56.793Z,18.80
2023-01-21T08:39:23.461Z,13.90
2023-01-21T08:41:50.073Z,16.17
2023-01-21T08:44:16.721Z,21.27
2023-01-21T08:46:43.242Z,14.13
2023-01-21T08:49:09.777Z,12.77
2023-01-21T08:51:36.326Z,12.57
2023-01-21T08:54:03.056Z,11.13
2023-01-21T08:56:29.544Z,12.90
2023-01-21T08:58:56.807Z,12.67
2023-01-21T09:01:24.729Z,24.57
2023-01-21T09:03:55.536Z,13.07
2023-01-21T09:06:22.221Z,11.03
2023-01-21T09:08:48.784Z,11.17
2023-01-21T09:11:16.781Z,11.53
2023-01-21T09:13:45.076Z,12.33
2023-01-21T09:16:12.554Z,11.70
2023-01-21T09:18:39.145Z,9.57
2023-01-21T09:21:06.026Z,11.60
2023-01-21T09:23:35.085Z,13.20
2023-01-21T09:26:08.935Z,13.90
2023-01-21T09:28:38.749Z,13.43
2023-01-21T09:31:06.029Z,12.43
2023-01-21T09:33:32.991Z,11.83
2023-01-21T09:36:00.693Z,11.83
2023-01-21T09:38:29.507Z,42.10
2023-01-21T09:40:57.227Z,21.23
2023-01-21T09:43:24.454Z,15.27
2023-01-21T09:45:51.171Z,14.73
2023-01-21T09:48:22.484Z,15.20
2023-01-21T09:50:49.020Z,12.90
2023-01-21T09:53:24.475Z,11.83
2023-01-21T09:55:51.324Z,12.13
2023-01-21T09:58:23.990Z,12.33
2023-01-21T10:00:55.610Z,14.97
2023-01-21T10:03:28.087Z,14.03
2023-01-21T10:05:54.640Z,14.83
2023-01-21T10:08:33.130Z,13.23
2023-01-21T10:11:20.562Z,13.53
2023-01-21T10:13:47.261Z,13.90
2023-01-21T10:16:26.842Z,13.50
2023-01-21T10:18:53.438Z,14.30
2023-01-21T10:21:30.006Z,15.90
2023-01-21T10:24:02.732Z,16.07
2023-01-21T10:26:29.340Z,15.10
2023-01-21T10:28:55.886Z,15.63
2023-01-21T10:31:33.279Z,14.27
2023-01-21T10:33:59.838Z,15.53
2023-01-21T10:36:29.406Z,14.30
2023-01-21T10:39:05.765Z,15.43
2023-01-21T10:41:32.321Z,16.20
2023-01-21T10:44:14.094Z,14.90
2023-01-21T10:46:40.650Z,14.80
2023-01-21T10:49:07.204Z,15.57
2023-01-21T10:51:44.195Z,15.17
2023-01-21T10:54:29.421Z,14.67
2023-01-21T10:56:55.998Z,14.93
2023-01-21T10:59:23.108Z,15.27
2023-01-21T11:01:50.793Z,15.70
2023-01-21T11:04:21.429Z,16.33
2023-01-21T11:07:04.837Z,14.93
2023-01-21T11:09:35.368Z,16.90
2023-01-21T11:12:03.112Z,17.00
2023-01-21T11:14:30.680Z,17.60
2023-01-21T11:16:57.446Z,17.67
2023-01-21T11:19:24.791Z,16.93
2023-01-21T11:21:57.462Z,17.47
2023-01-21T11:24:24.949Z,17.20
2023-01-21T11:26:52.257Z,17.07
2023-01-21T11:29:20.136Z,17.00
2023-01-21T11:32:00.103Z,15.57
2023-01-21T11:34:26.817Z,16.50
2023-01-21T11:36:57.356Z,17.10
2023-01-21T11:39:24.492Z,15.80
2023-01-21T11:41:54.738Z,16.30
2023-01-21T11:44:21.551Z,15.33
2023-01-21T11:46:48.121Z,17.63
2023-01-21T11:49:18.822Z,16.47
2023-01-21T11:51:45.766Z,17.37
2023-01-21T11:54:19.406Z,17.30
2023-01-21T11:56:56.500Z,16.13
2023-01-21T11:59:39.663Z,16.20
2023-01-21T12:02:07.754Z,15.67
2023-01-21T12:04:34.336Z,16.03
2023-01-21T12:07:01.114Z,15.80
2023-01-21T12:09:28.278Z,14.43
2023-01-21T12:12:15.149Z,15.73
2023-01-21T12:14:47.594Z,15.83
2023-01-21T12:17:14.233Z,14.67
2023-01-21T12:19:47.130Z,14.97
2023-01-21T12:22:26.021Z,16.87
2023-01-21T12:25:10.904Z,16.20
2023-01-21T12:27:37.397Z,15.03
2023-01-21T12:30:22.709Z,15.97
2023-01-21T12:32:50.691Z,16.00
2023-01-21T12:35:19.406Z,16.37
2023-01-21T12:38:15.523Z,15.77
2023-01-21T12:40:45.093Z,16.17
2023-01-21T12:43:32.548Z,17.53
2023-01-21T12:46:01.575Z,18.00
2023-01-21T12:48:35.764Z,19.57
2023-01-21T12:51:10.109Z,18.87
2023-01-21T12:53:39.550Z,17.80
2023-01-21T12:56:21.551Z,18.83
2023-01-21T12:58:55.459Z,18.20
2023-01-21T13:01:41.137Z,16.83
2023-01-21T13:04:19.013Z,15.90
2023-01-21T13:06:57.412Z,18.00
2023-01-21T13:09:44.357Z,18.90
2023-01-21T13:12:13.318Z,18.57
2023-01-21T13:14:40.682Z,17.80
2023-01-21T13:17:12.166Z,19.27
2023-01-21T13:19:38.745Z,18.50
2023-01-21T13:22:08.127Z,18.93
2023-01-21T13:24:43.388Z,19.07
2023-01-21T13:27:17.251Z,20.87
2023-01-21T13:30:02.685Z,20.30
2023-01-21T13:32:31.992Z,20.30
2023-01-21T13:35:19.782Z,19.60
2023-01-21T13:37:51.669Z,20.07
2023-01-21T13:40:21.340Z,20.43
2023-01-21T13:43:08.076Z,21.60
2023-01-21T13:45:53.385Z,20.33
2023-01-21T13:48:38.702Z,19.60
2023-01-21T13:51:14.574Z,19.03
2023-01-21T13:53:47.332Z,21.50
2023-01-21T13:56:13.986Z,21.33
2023-01-21T13:58:40.473Z,20.97
2023-01-21T14:01:09.788Z,19.87
2023-01-21T14:03:39.417Z,21.87
2023-01-21T14:06:11.087Z,22.07
2023-01-21T14:08:40.746Z,23.03
2023-01-21T14:11:10.335Z,22.27
2023-01-21T14:13:45.897Z,20.90
2023-01-21T14:16:41.806Z,20.80
2023-01-21T14:19:11.944Z,22.13
2023-01-21T14:21:53.977Z,22.80
2023-01-21T14:24:29.640Z,21.63
2023-01-21T14:26:56.217Z,20.03
2023-01-21T14:29:35.913Z,19.73
2023-01-21T14:32:02.818Z,19.83
2023-01-21T14:34:34.004Z,20.37
2023-01-21T14:37:06.716Z,19.63
2023-01-21T14:39:43.107Z,20.40
2023-01-21T14:42:14.864Z,20.87
2023-01-21T14:44:45.771Z,21.47
2023-01-21T14:47:16.239Z,22.90
2023-01-21T14:49:46.616Z,22.33
2023-01-21T14:52:14.171Z,22.90
2023-01-21T14:54:42.294Z,22.27
2023-01-21T14:57:27.753Z,26.53
2023-01-21T14:59:54.910Z,25.17
2023-01-21T15:02:21.494Z,23.77
2023-01-21T15:05:11.507Z,23.63
2023-01-21T15:07:39.521Z,23.03
2023-01-21T15:10:29.343Z,22.00
2023-01-21T15:12:56.452Z,22.37
2023-01-21T15:15:37.093Z,22.93
2023-01-21T15:18:04.158Z,24.23
2023-01-21T15:20:42.836Z,24.20
2023-01-21T15:23:28.567Z,27.30
2023-01-21T15:26:05.269Z,26.33
2023-01-21T15:29:01.251Z,23.63
2023-01-21T15:31:27.888Z,24.60
2023-01-21T15:33:57.932Z,23.90
2023-01-21T15:36:26.012Z,21.07
2023-01-21T15:38:52.909Z,22.73
2023-01-21T15:41:25.327Z,23.00
2023-01-21T15:43:55.554Z,23.40
2023-01-21T15:46:38.015Z,22.33
2023-01-21T15:49:13.756Z,21.37
2023-01-21T15:51:55.570Z,21.07
2023-01-21T15:54:30.989Z,21.00
2023-01-21T15:57:02.385Z,19.17
2023-01-21T15:59:44.087Z,18.87
2023-01-21T16:02:10.649Z,18.80
2023-01-21T16:04:50.726Z,18.70
2023-01-21T16:07:17.224Z,19.30
2023-01-21T16:09:53.204Z,20.03
2023-01-21T16:12:19.729Z,19.50
2023-01-21T16:15:08.116Z,20.80
2023-01-21T16:17:38.794Z,20.73
2023-01-21T16:20:06.122Z,20.33
2023-01-21T16:22:33.039Z,21.23
2023-01-21T16:30:28.455Z,22.13
2023-01-21T16:33:12.211Z,21.57
2023-01-21T16:35:57.837Z,21.57
2023-01-21T16:38:25.101Z,23.63
2023-01-21T16:40:58.652Z,24.70
2023-01-21T16:43:26.157Z,25.90
2023-01-21T16:45:55.543Z,27.70
2023-01-21T16:48:23.310Z,26.80
2023-01-21T16:50:50.012Z,27.33
2023-01-21T16:53:17.829Z,28.73
2023-01-21T16:55:47.340Z,29.60
2023-01-21T16:58:24.901Z,30.97
2023-01-21T17:01:00.782Z,29.37
2023-01-21T17:03:27.666Z,29.60
2023-01-21T17:05:54.828Z,30.53
2023-01-21T17:08:21.407Z,29.63
2023-01-21T17:10:57.620Z,32.07
2023-01-21T17:13:24.307Z,31.63
2023-01-21T17:15:57.655Z,34.93
2023-01-21T17:18:31.093Z,38.23
2023-01-21T17:21:06.881Z,39.27
2023-01-21T17:23:44.045Z,37.67
2023-01-21T17:26:15.276Z,39.03
2023-01-21T17:28:45.714Z,35.43
2023-01-21T17:34:28.702Z,38.30
2023-01-21T17:36:55.429Z,37.60
2023-01-21T17:39:40.663Z,41.00
2023-01-21T17:42:11.294Z,45.13
2023-01-21T17:44:37.871Z,42.67
2023-01-21T17:47:04.470Z,42.70
2023-01-21T17:49:30.945Z,41.70
2023-01-21T17:51:57.481Z,41.73
2023-01-21T17:54:29.450Z,42.40
2023-01-21T17:56:59.311Z,41.80
2023-01-21T17:59:26.115Z,40.67
2023-01-21T18:01:53.213Z,39.23
2023-01-21T18:04:19.763Z,38.07
2023-01-21T18:06:46.485Z,36.80
2023-01-21T18:09:14.863Z,35.07
2023-01-21T18:11:41.447Z,36.87
2023-01-21T18:14:10.188Z,38.03
2023-01-21T18:16:36.831Z,37.43
2023-01-21T18:19:03.514Z,41.73
2023-01-21T18:21:30.112Z,40.50
2023-01-21T18:23:56.772Z,39.53
2023-01-21T18:26:30.194Z,37.27
2023-01-21T18:28:56.843Z,37.93
2023-01-21T18:31:23.626Z,35.03
2023-01-21T18:33:50.512Z,36.80
2023-01-21T18:36:17.259Z,36.47
2023-01-21T18:38:45.245Z,34.30
2023-01-21T18:41:11.811Z,34.57
2023-01-21T18:43:38.504Z,35.30
2023-01-21T18:46:09.028Z,34.67
2023-01-21T18:48:35.711Z,34.23
2023-01-21T18:51:02.336Z,34.70
2023-01-21T18:53:28.945Z,33.03
2023-01-21T18:55:56.585Z,32.83
2023-01-21T18:58:23.189Z,32.13
2023-01-21T19:00:50.633Z,35.33
2023-01-21T19:03:17.288Z,32.33
2023-01-21T19:05:44.530Z,33.47
2023-01-21T19:08:22.814Z,32.40
2023-01-21T19:10:49.703Z,33.17
2023-01-21T19:13:16.236Z,31.57
2023-01-21T19:15:43.054Z,32.77
2023-01-21T19:18:10.285Z,34.93
2023-01-21T19:20:40.469Z,36.93
2023-01-21T19:23:10.082Z,39.00
2023-01-21T19:25:36.620Z,41.37
2023-01-21T19:28:03.246Z,45.80
2023-01-21T19:30:30.853Z,42.57
2023-01-21T19:32:58.159Z,44.33
2023-01-21T19:35:29.202Z,43.10
2023-01-21T19:37:55.814Z,37.47
2023-01-21T19:40:24.106Z,34.70
2023-01-21T19:42:51.518Z,33.63
2023-01-21T19:45:18.478Z,35.10
2023-01-21T19:47:46.738Z,35.60
2023-01-21T19:50:20.095Z,35.27
2023-01-21T19:52:50.718Z,31.50
2023-01-21T19:55:18.596Z,30.20
2023-01-21T19:57:47.857Z,29.57
2023-01-21T20:00:16.614Z,28.87
2023-01-21T20:02:43.727Z,28.93
2023-01-21T20:05:10.526Z,26.40
2023-01-21T20:07:37.358Z,28.27
2023-01-21T20:10:14.274Z,31.60
2023-01-21T20:12:41.065Z,39.93
2023-01-21T20:15:08.081Z,38.90
2023-01-21T20:17:34.886Z,34.67
2023-01-21T20:20:01.558Z,36.00
2023-01-21T20:22:31.862Z,41.03
2023-01-21T20:24:58.415Z,38.23
2023-01-21T20:27:25.105Z,36.53
2023-01-21T20:30:02.778Z,35.23
2023-01-21T20:32:35.731Z,34.10
2023-01-21T20:35:03.841Z,34.53
2023-01-21T20:37:30.439Z,35.37
2023-01-21T20:39:57.398Z,34.30
2023-01-21T20:42:25.189Z,31.97
2023-01-21T20:44:52.872Z,34.33
2023-01-21T20:47:27.684Z,32.83
2023-01-21T20:50:06.611Z,33.57
2023-01-21T20:52:33.190Z,34.77
2023-01-21T20:54:59.834Z,34.77
2023-01-21T20:57:26.872Z,35.80
2023-01-21T20:59:53.481Z,35.77
2023-01-21T21:02:20.072Z,34.70
2023-01-21T21:04:47.189Z,36.33
2023-01-21T21:07:15.468Z,35.00
2023-01-21T21:09:43.254Z,36.63
2023-01-21T21:12:09.836Z,37.13
2023-01-21T21:14:36.405Z,38.77
2023-01-21T21:17:03.046Z,38.60
2023-01-21T21:19:29.774Z,42.10
2023-01-21T21:21:56.483Z,43.93
2023-01-21T21:24:27.238Z,41.83
2023-01-21T21:26:54.098Z,44.37
2023-01-21T21:29:20.799Z,49.67
2023-01-21T21:31:47.679Z,51.87
2023-01-21T21:34:14.936Z,53.20
2023-01-21T21:36:41.751Z,52.57
2023-01-21T21:39:08.339Z,52.03
2023-01-21T21:41:53.576Z,54.40
2023-01-21T21:44:20.103Z,55.17
2023-01-21T21:47:05.282Z,56.03
2023-01-21T21:49:31.907Z,59.53
2023-01-21T21:52:00.387Z,56.57
2023-01-21T21:54:27.048Z,59.27
2023-01-21T21:56:53.621Z,57.67
2023-01-21T21:59:20.154Z,57.03
2023-01-21T22:01:46.736Z,60.63
2023-01-21T22:04:13.289Z,59.07
2023-01-21T22:06:39.874Z,58.87
2023-01-21T22:09:06.530Z,58.23
2023-01-21T22:11:33.093Z,61.27
2023-01-21T22:14:03.904Z,58.63
2023-01-21T22:16:31.569Z,57.00
2023-01-21T22:18:58.463Z,56.27
2023-01-21T22:21:25.870Z,57.73
2023-01-21T22:23:52.556Z,55.90
2023-01-21T22:26:19.864Z,49.70
2023-01-21T22:28:46.516Z,50.63
2023-01-21T22:31:14.507Z,50.20
2023-01-21T22:33:41.434Z,49.13
2023-01-21T22:36:09.036Z,50.47
2023-01-21T22:38:36.095Z,46.37
2023-01-21T22:41:02.801Z,47.23
2023-01-21T22:43:29.596Z,46.23
2023-01-21T22:45:56.538Z,48.67
2023-01-21T22:48:23.179Z,44.70
2023-01-21T22:50:56.702Z,44.57
2023-01-21T22:53:23.612Z,42.10
2023-01-21T22:55:59.930Z,41.43
2023-01-21T22:58:26.828Z,44.53
2023-01-21T23:00:54.688Z,43.40
2023-01-21T23:03:21.468Z,45.47
2023-01-21T23:05:48.064Z,48.23
2023-01-21T23:08:15.059Z,47.03
2023-01-21T23:10:42.729Z,51.97
2023-01-21T23:13:09.669Z,53.20
2023-01-21T23:15:36.241Z,50.50
2023-01-21T23:18:02.792Z,53.83
2023-01-21T23:20:29.446Z,53.00
2023-01-21T23:22:56.530Z,52.77
2023-01-21T23:25:23.117Z,53.03
2023-01-21T23:27:49.691Z,51.57
2023-01-21T23:30:16.872Z,50.37
2023-01-21T23:32:43.611Z,54.23
2023-01-21T23:35:10.282Z,52.07
2023-01-21T23:37:37.369Z,50.77
2023-01-21T23:40:04.387Z,51.53
2023-01-21T23:42:30.973Z,51.20
2023-01-21T23:44:57.542Z,52.07
2023-01-21T23:47:24.100Z,52.03
2023-01-21T23:49:50.585Z,51.30
2023-01-21T23:52:17.198Z,50.80
2023-01-21T23:54:44.007Z,50.67
2023-01-21T23:57:11.431Z,52.80
2023-01-21T23:59:38.105Z,51.77
